Time;durP1;ratioP1;P1;durP2;ratioP2;P2;SDS_P1;SDS_P2;PMS_P1;PMS_P2;Temp;Humidity;BMP_temperature;BMP_pressure;BME280_temperature;BME280_humidity;BME280_pressure;Samples;Min_cycle;Max_cycle;Signal;HPM_P1;HPM_P2
2022/02/24 00:02:18;;;;;;;7.10;2.13;;;10.40;80.10;;;;;;5050807;28;20013;-77
2022/02/24 00:04:44;;;;;;;4.43;1.98;;;10.40;80.00;;;;;;5054717;28;20369;-77
2022/02/24 00:07:09;;;;;;;5.65;2.35;;;10.40;80.10;;;;;;5053387;28;20025;-77
2022/02/24 00:09:35;;;;;;;7.22;2.10;;;10.40;79.80;;;;;;5036634;28;20021;-77
2022/02/24 00:12:02;;;;;;;6.35;2.03;;;10.40;80.00;;;;;;5035533;28;20100;-77
2022/02/24 00:14:28;;;;;;;7.07;2.25;;;10.40;80.10;;;;;;5038382;28;20021;-77
2022/02/24 00:16:53;;;;;;;7.70;2.05;;;10.40;80.10;;;;;;5056201;28;20075;-77
2022/02/24 00:19:19;;;;;;;6.63;2.25;;;10.40;80.00;;;;;;5052760;28;20025;-77
2022/02/24 00:21:45;;;;;;;6.65;2.15;;;10.40;80.00;;;;;;5035357;28;20104;-78
2022/02/24 00:24:10;;;;;;;6.28;2.30;;;10.40;80.00;;;;;;5052757;28;20027;-77
2022/02/24 00:26:37;;;;;;;6.40;2.28;;;10.40;79.90;;;;;;5045811;28;20107;-77
2022/02/24 00:29:03;;;;;;;6.32;2.00;;;10.40;79.70;;;;;;5050750;28;20024;-78
2022/02/24 00:31:28;;;;;;;8.88;2.20;;;10.40;80.00;;;;;;5039756;28;20458;-77
2022/02/24 00:33:54;;;;;;;6.70;1.90;;;10.40;79.80;;;;;;5035950;28;20685;-78
2022/02/24 00:36:19;;;;;;;5.28;1.80;;;10.40;80.00;;;;;;5017279;28;20025;-77
2022/02/24 00:38:45;;;;;;;4.72;1.70;;;10.40;79.90;;;;;;5006043;28;20026;-78
2022/02/24 00:41:10;;;;;;;6.47;2.13;;;10.40;79.80;;;;;;5004615;28;20224;-77
2022/02/24 00:43:36;;;;;;;5.63;1.95;;;10.40;79.90;;;;;;5035478;28;20022;-77
2022/02/24 00:46:02;;;;;;;5.80;1.90;;;10.40;79.90;;;;;;5035481;28;20034;-77
2022/02/24 00:48:28;;;;;;;5.75;2.10;;;10.40;79.90;;;;;;5035300;28;20018;-77
2022/02/24 00:50:53;;;;;;;6.95;2.20;;;10.40;80.10;;;;;;5035626;28;20032;-77
2022/02/24 00:53:19;;;;;;;8.48;1.90;;;10.40;79.90;;;;;;5035282;28;20036;-78
2022/02/24 00:55:45;;;;;;;4.85;2.00;;;10.40;80.00;;;;;;5036219;28;20022;-77
2022/02/24 00:58:10;;;;;;;6.47;2.20;;;10.40;80.00;;;;;;5034903;28;20480;-77
2022/02/24 01:00:36;;;;;;;5.43;2.10;;;10.40;80.10;;;;;;5017662;28;20029;-78
2022/02/24 01:03:01;;;;;;;7.32;2.25;;;10.40;80.10;;;;;;5017449;28;20037;-77
2022/02/24 01:05:28;;;;;;;5.45;1.60;;;10.40;80.10;;;;;;5017639;28;20112;-77
2022/02/24 01:07:53;;;;;;;7.38;1.80;;;10.40;80.20;;;;;;5016893;28;20037;-76
2022/02/24 01:10:19;;;;;;;5.43;1.90;;;10.40;80.10;;;;;;5016068;28;20033;-77
2022/02/24 01:12:44;;;;;;;4.97;1.80;;;10.40;80.00;;;;;;5017737;28;20128;-77
2022/02/24 01:15:11;;;;;;;5.38;2.10;;;10.40;80.20;;;;;;5016944;28;20024;-77
2022/02/24 01:17:39;;;;;;;7.13;2.47;;;10.40;80.10;;;;;;5017025;28;20051;-78
2022/02/24 01:20:06;;;;;;;6.28;2.10;;;10.40;80.20;;;;;;5017176;28;20512;-78
2022/02/24 01:22:31;;;;;;;7.25;2.13;;;10.40;80.20;;;;;;5034295;28;20025;-77
2022/02/24 01:24:57;;;;;;;7.90;2.50;;;10.40;80.20;;;;;;5016898;28;20396;-77
2022/02/24 01:27:23;;;;;;;6.60;2.20;;;10.40;80.30;;;;;;5016387;28;20088;-77
2022/02/24 01:29:48;;;;;;;6.70;2.08;;;10.40;80.10;;;;;;5034196;28;20025;-77
2022/02/24 01:32:14;;;;;;;6.65;2.00;;;10.40;80.30;;;;;;5034776;28;20041;-77
2022/02/24 01:34:40;;;;;;;5.82;1.70;;;10.40;80.20;;;;;;5034213;28;20025;-77
2022/02/24 01:37:05;;;;;;;6.40;1.98;;;10.40;80.20;;;;;;5034198;28;20076;-77
2022/02/24 01:39:31;;;;;;;7.65;2.13;;;10.40;80.20;;;;;;5016156;28;20029;-77
2022/02/24 01:41:56;;;;;;;6.68;1.98;;;10.40;80.30;;;;;;5034467;28;20025;-77
2022/02/24 01:44:23;;;;;;;6.47;2.00;;;10.30;80.20;;;;;;5017084;28;20022;-77
2022/02/24 01:46:50;;;;;;;5.93;2.28;;;10.40;80.40;;;;;;5016799;28;20108;-77
2022/02/24 01:49:18;;;;;;;7.32;2.00;;;10.40;80.40;;;;;;5016017;28;20017;-77
2022/02/24 01:51:43;;;;;;;5.38;1.90;;;10.30;80.40;;;;;;5016014;28;20025;-77
2022/02/24 01:54:09;;;;;;;5.40;1.75;;;10.40;80.40;;;;;;5016817;28;20038;-76
2022/02/24 01:56:35;;;;;;;5.22;1.95;;;10.40;80.40;;;;;;5034739;28;20083;-77
2022/02/24 01:59:01;;;;;;;6.75;2.28;;;10.40;80.20;;;;;;5016183;28;20499;-78
2022/02/24 02:01:26;;;;;;;5.30;1.95;;;10.40;80.40;;;;;;5033814;28;20018;-77
2022/02/24 02:03:54;;;;;;;5.38;2.25;;;10.40;80.40;;;;;;5034923;28;20487;-78
2022/02/24 02:06:20;;;;;;;5.68;1.88;;;10.40;80.40;;;;;;5015718;28;20057;-77
2022/02/24 02:08:46;;;;;;;5.53;1.92;;;10.30;80.40;;;;;;5016436;28;20113;-77
2022/02/24 02:11:12;;;;;;;4.75;1.90;;;10.40;80.30;;;;;;5033782;28;21422;-77
2022/02/24 02:13:37;;;;;;;5.78;1.88;;;10.30;80.40;;;;;;5016582;28;20025;-77
2022/02/24 02:16:04;;;;;;;6.88;1.90;;;10.40;80.40;;;;;;5034063;28;20076;-77
2022/02/24 02:18:29;;;;;;;5.70;1.85;;;10.30;80.20;;;;;;5016520;28;20029;-77
2022/02/24 02:20:55;;;;;;;5.25;2.03;;;10.40;80.40;;;;;;5033688;28;20376;-76
2022/02/24 02:23:21;;;;;;;4.40;1.73;;;10.30;80.30;;;;;;5015823;28;20431;-76
2022/02/24 02:25:47;;;;;;;5.20;2.17;;;10.30;80.30;;;;;;5016439;28;20075;-78
2022/02/24 02:28:14;;;;;;;7.35;2.40;;;10.40;80.50;;;;;;5015794;28;20037;-77
2022/02/24 02:30:39;;;;;;;8.23;1.80;;;10.40;80.50;;;;;;5016172;28;20117;-77
2022/02/24 02:33:05;;;;;;;4.82;1.80;;;10.40;80.50;;;;;;5046574;28;20520;-77
2022/02/24 02:35:30;;;;;;;10.05;2.13;;;10.40;80.60;;;;;;5052261;28;20025;-77
2022/02/24 02:37:57;;;;;;;8.30;2.22;;;10.40;80.60;;;;;;5046895;28;20032;-77
2022/02/24 02:40:24;;;;;;;5.63;2.28;;;10.40;80.70;;;;;;5034054;28;20017;-77
2022/02/24 02:42:50;;;;;;;5.97;2.03;;;10.40;80.70;;;;;;5032952;28;20653;-77
2022/02/24 02:45:16;;;;;;;6.63;1.88;;;10.40;80.60;;;;;;5048557;28;20115;-77
2022/02/24 02:47:41;;;;;;;4.80;1.80;;;10.40;80.70;;;;;;5038804;28;20065;-77
2022/02/24 02:50:07;;;;;;;6.53;2.08;;;10.30;80.60;;;;;;5039016;28;20031;-77
2022/02/24 02:52:33;;;;;;;8.95;2.40;;;10.40;80.60;;;;;;5051034;28;20087;-77
2022/02/24 02:55:05;;;;;;;6.57;2.50;;;10.40;80.60;;;;;;5054170;28;20052;-77
2022/02/24 02:57:30;;;;;;;;;;;10.40;80.60;;;;;;5064836;28;20025;-77
2022/02/24 02:59:56;;;;;;;5.53;1.70;;;10.40;80.50;;;;;;5039624;28;19915;-77
2022/02/24 03:02:21;;;;;;;5.47;2.03;;;10.40;80.50;;;;;;5035798;28;20103;-75
2022/02/24 03:04:50;;;;;;;6.43;2.00;;;10.40;80.60;;;;;;5053813;28;20031;-77
2022/02/24 03:07:17;;;;;;;6.88;2.33;;;10.40;80.70;;;;;;5057032;28;20025;-76
2022/02/24 03:09:44;;;;;;;5.85;2.30;;;10.40;81.10;;;;;;5056947;28;20029;-77
2022/02/24 03:12:10;;;;;;;7.32;2.30;;;10.30;80.60;;;;;;5055937;28;20021;-77
2022/02/24 03:14:38;;;;;;;4.95;2.10;;;10.40;80.70;;;;;;5057134;28;20025;-77
2022/02/24 03:17:04;;;;;;;5.13;1.77;;;10.40;80.70;;;;;;5055654;28;20037;-76
2022/02/24 03:19:29;;;;;;;4.70;1.92;;;10.40;80.70;;;;;;5057302;28;20041;-78
2022/02/24 03:21:55;;;;;;;5.05;2.08;;;10.30;80.70;;;;;;5055249;28;20091;-77
2022/02/24 03:24:21;;;;;;;6.03;2.05;;;10.40;80.70;;;;;;5046686;28;20108;-77
2022/02/24 03:26:47;;;;;;;5.35;2.00;;;10.30;80.50;;;;;;5041786;28;20017;-77
2022/02/24 03:29:12;;;;;;;6.22;2.15;;;10.40;80.70;;;;;;5056936;28;20029;-77
2022/02/24 03:31:38;;;;;;;6.88;2.05;;;10.40;80.70;;;;;;5048541;28;20492;-77
2022/02/24 03:34:03;;;;;;;4.50;1.73;;;10.40;80.80;;;;;;5035672;28;20033;-77
2022/02/24 03:36:29;;;;;;;6.10;1.90;;;10.40;80.70;;;;;;5065029;28;20029;-78
2022/02/24 03:38:54;;;;;;;5.78;1.90;;;10.40;80.70;;;;;;5052882;28;20026;-77
2022/02/24 03:41:20;;;;;;;4.72;1.65;;;10.40;80.80;;;;;;5035291;28;20044;-77
2022/02/24 03:43:46;;;;;;;4.93;2.30;;;10.40;81.00;;;;;;5036006;28;20112;-77
2022/02/24 03:46:12;;;;;;;6.78;1.83;;;10.40;80.80;;;;;;5035473;28;20030;-77
2022/02/24 03:48:38;;;;;;;6.38;2.22;;;10.40;81.00;;;;;;5069139;28;20025;-77
2022/02/24 03:51:03;;;;;;;5.85;2.00;;;10.40;80.90;;;;;;5055912;28;20028;-77
2022/02/24 03:53:29;;;;;;;5.97;1.98;;;10.40;80.80;;;;;;5054906;28;20032;-76
2022/02/24 03:55:54;;;;;;;7.57;2.00;;;10.40;81.00;;;;;;5054986;28;20495;-77
2022/02/24 03:58:20;;;;;;;6.15;1.80;;;10.40;81.00;;;;;;5054813;28;20075;-78
2022/02/24 04:00:45;;;;;;;6.68;2.20;;;10.30;81.00;;;;;;5055590;28;20028;-77
2022/02/24 04:03:11;;;;;;;4.38;1.83;;;10.30;80.90;;;;;;5055081;28;20028;-77
2022/02/24 04:05:36;;;;;;;6.60;1.95;;;10.30;80.90;;;;;;5055543;28;20024;-77
2022/02/24 04:08:02;;;;;;;4.15;1.65;;;10.40;80.80;;;;;;5055933;28;20032;-77
2022/02/24 04:10:28;;;;;;;6.38;2.08;;;10.30;80.90;;;;;;5056284;28;20036;-77
2022/02/24 04:12:53;;;;;;;6.57;2.25;;;10.40;80.90;;;;;;5054258;28;20491;-76
2022/02/24 04:15:19;;;;;;;7.10;1.95;;;10.40;81.00;;;;;;5055168;28;20033;-77
2022/02/24 04:17:44;;;;;;;5.18;2.10;;;10.30;80.80;;;;;;5055615;28;20029;-78
2022/02/24 04:20:10;;;;;;;6.07;2.20;;;10.30;81.00;;;;;;5053844;28;20559;-77
2022/02/24 04:22:35;;;;;;;5.15;1.98;;;10.30;81.00;;;;;;5053817;28;20033;-77
2022/02/24 04:25:01;;;;;;;5.50;2.20;;;10.30;81.00;;;;;;5048660;28;20025;-77
2022/02/24 04:27:26;;;;;;;5.45;2.10;;;10.40;81.00;;;;;;5070472;28;20070;-77
2022/02/24 04:29:52;;;;;;;6.45;2.22;;;10.40;81.10;;;;;;5039979;28;20029;-77
2022/02/24 04:32:18;;;;;;;6.82;2.20;;;10.40;81.00;;;;;;5044192;23;20038;-74
2022/02/24 04:34:43;;;;;;;8.00;2.30;;;10.40;81.10;;;;;;4993985;28;20027;-74
2022/02/24 04:37:09;;;;;;;5.75;2.20;;;10.30;81.00;;;;;;4992451;28;20038;-74
2022/02/24 04:39:35;;;;;;;5.40;1.90;;;10.30;81.10;;;;;;4992406;28;20034;-75
2022/02/24 04:42:00;;;;;;;5.43;2.00;;;10.40;81.20;;;;;;4988274;28;20027;-74
2022/02/24 04:44:26;;;;;;;5.70;2.30;;;10.40;81.30;;;;;;4974481;28;20038;-74
2022/02/24 04:46:51;;;;;;;6.82;2.22;;;10.40;81.10;;;;;;4972969;28;20451;-75
2022/02/24 04:49:17;;;;;;;8.73;2.85;;;10.40;81.10;;;;;;4972872;28;20074;-75
2022/02/24 04:51:43;;;;;;;6.95;2.20;;;10.40;81.30;;;;;;4973741;28;20027;-74
2022/02/24 04:54:08;;;;;;;5.43;2.08;;;10.40;81.20;;;;;;4973272;28;20058;-75
2022/02/24 04:56:34;;;;;;;6.95;2.30;;;10.40;81.20;;;;;;4973666;28;20672;-74
2022/02/24 04:58:59;;;;;;;7.00;2.17;;;10.40;81.20;;;;;;4974208;28;20030;-74
2022/02/24 05:01:26;;;;;;;6.38;1.88;;;10.40;81.20;;;;;;4972748;28;20055;-76
2022/02/24 05:03:51;;;;;;;5.75;2.00;;;10.40;81.40;;;;;;4970924;28;20027;-74
2022/02/24 05:06:17;;;;;;;6.25;2.15;;;10.40;81.30;;;;;;4971613;28;20047;-75
2022/02/24 05:08:42;;;;;;;8.88;2.50;;;10.40;81.30;;;;;;4972337;28;20030;-75
2022/02/24 05:11:08;;;;;;;7.45;2.25;;;10.40;81.30;;;;;;4972809;28;20076;-75
2022/02/24 05:13:33;;;;;;;6.90;2.22;;;10.40;81.90;;;;;;4972129;28;20039;-74
2022/02/24 05:15:59;;;;;;;6.40;2.20;;;10.40;81.80;;;;;;4970556;28;20026;-75
2022/02/24 05:18:24;;;;;;;7.57;2.40;;;10.30;81.40;;;;;;4971867;28;20090;-75
2022/02/24 05:20:50;;;;;;;5.60;1.88;;;10.40;81.30;;;;;;4972258;28;20453;-73
2022/02/24 05:23:15;;;;;;;7.72;2.30;;;10.40;81.30;;;;;;4973767;28;20493;-74
2022/02/24 05:25:41;;;;;;;7.40;2.30;;;10.40;81.20;;;;;;4972169;28;20482;-74
2022/02/24 05:28:11;;;;;;;6.10;2.28;;;10.40;81.40;;;;;;4972624;28;20031;-74
2022/02/24 05:30:38;;;;;;;6.60;2.10;;;10.40;81.30;;;;;;4972021;28;20098;-74
2022/02/24 05:33:04;;;;;;;9.95;2.50;;;10.30;81.30;;;;;;4988430;28;20430;-74
2022/02/24 05:35:30;;;;;;;7.88;2.22;;;10.30;81.30;;;;;;4973775;28;20027;-75
2022/02/24 05:37:56;;;;;;;6.47;2.08;;;10.40;81.30;;;;;;4972187;28;20082;-74
2022/02/24 05:40:22;;;;;;;7.22;2.15;;;10.30;81.40;;;;;;4971901;28;20474;-75
2022/02/24 05:42:48;;;;;;;9.27;2.78;;;10.30;81.40;;;;;;4972440;28;20033;-74
2022/02/24 05:45:13;;;;;;;6.57;2.25;;;10.40;81.40;;;;;;4973610;28;20061;-74
2022/02/24 05:47:39;;;;;;;7.70;2.40;;;10.40;81.50;;;;;;4971966;28;20023;-75
2022/02/24 05:50:08;;;;;;;7.25;2.20;;;10.40;81.40;;;;;;4973527;28;20038;-75
2022/02/24 05:52:34;;;;;;;7.10;2.47;;;10.40;81.50;;;;;;4972155;28;20405;-74
2022/02/24 05:55:01;;;;;;;5.88;2.80;;;10.30;81.40;;;;;;4972162;28;20033;-74
2022/02/24 05:57:26;;;;;;;6.97;2.30;;;10.30;81.50;;;;;;4967635;28;20054;-75
2022/02/24 05:59:52;;;;;;;7.68;2.47;;;10.40;81.50;;;;;;4967769;28;20023;-75
2022/02/24 06:02:18;;;;;;;7.40;2.50;;;10.30;81.30;;;;;;4958694;28;20031;-76
2022/02/24 06:04:43;;;;;;;7.80;2.35;;;10.30;81.30;;;;;;4949311;28;20031;-75
2022/02/24 06:07:09;;;;;;;8.85;2.35;;;10.40;81.40;;;;;;4966080;28;20071;-76
2022/02/24 06:09:34;;;;;;;7.22;2.33;;;10.30;81.40;;;;;;4969434;28;20038;-76
2022/02/24 06:12:00;;;;;;;6.40;2.28;;;10.30;81.40;;;;;;4968812;28;20038;-76
2022/02/24 06:14:26;;;;;;;8.27;2.70;;;10.40;81.50;;;;;;4967820;28;20027;-75
2022/02/24 06:16:51;;;;;;;5.78;2.30;;;10.40;81.50;;;;;;4968797;28;20121;-76
2022/02/24 06:19:17;;;;;;;8.13;3.15;;;10.30;81.30;;;;;;4968633;28;20019;-77
2022/02/24 06:21:42;;;;;;;5.07;2.40;;;10.40;81.40;;;;;;4961619;28;20035;-76
2022/02/24 06:24:08;;;;;;;6.80;2.28;;;10.40;81.30;;;;;;4969861;28;20107;-75
2022/02/24 06:26:33;;;;;;;7.78;2.50;;;10.40;81.30;;;;;;4965586;28;20038;-73
2022/02/24 06:28:59;;;;;;;7.53;2.50;;;10.40;81.40;;;;;;4967277;28;20030;-79
2022/02/24 06:31:25;;;;;;;8.00;2.70;;;10.40;81.40;;;;;;4984418;28;20027;-77
2022/02/24 06:33:51;;;;;;;7.38;2.50;;;10.40;81.20;;;;;;4967467;28;20062;-77
2022/02/24 06:36:16;;;;;;;13.07;3.13;;;10.40;80.60;;;;;;4969223;28;20082;-76
2022/02/24 06:38:42;;;;;;;11.57;3.40;;;10.40;78.40;;;;;;4983775;28;20031;-77
2022/02/24 06:41:08;;;;;;;11.90;4.03;;;10.40;78.50;;;;;;4971534;28;20073;-76
2022/02/24 06:43:33;;;;;;;10.27;3.47;;;10.30;78.20;;;;;;4972756;28;20106;-76
2022/02/24 06:45:59;;;;;;;11.70;3.10;;;10.30;78.50;;;;;;4970767;28;20027;-76
2022/02/24 06:48:27;;;;;;;12.98;3.75;;;10.30;79.20;;;;;;4970340;28;20030;-75
2022/02/24 06:50:53;;;;;;;10.02;3.00;;;10.30;79.50;;;;;;4970711;28;20224;-77
2022/02/24 06:53:18;;;;;;;7.82;2.63;;;10.30;79.80;;;;;;4970626;28;20027;-76
2022/02/24 06:55:44;;;;;;;8.80;2.83;;;10.30;80.00;;;;;;4971619;28;20423;-77
2022/02/24 06:58:09;;;;;;;6.53;2.75;;;10.40;80.20;;;;;;4969576;28;20049;-75
2022/02/24 07:00:35;;;;;;;9.15;2.90;;;10.30;80.40;;;;;;4971165;28;20432;-76
2022/02/24 07:03:00;;;;;;;7.18;2.63;;;10.30;80.40;;;;;;4971419;28;20035;-75
2022/02/24 07:05:26;;;;;;;8.00;2.90;;;10.30;80.60;;;;;;4970534;28;20031;-76
2022/02/24 07:07:51;;;;;;;6.95;2.60;;;10.30;80.60;;;;;;4970017;28;20034;-75
2022/02/24 07:10:17;;;;;;;7.68;2.60;;;10.30;80.70;;;;;;4970537;28;20513;-76
2022/02/24 07:12:44;;;;;;;7.40;2.85;;;10.40;80.80;;;;;;4971148;28;20385;-76
2022/02/24 07:15:12;;;;;;;9.57;2.88;;;10.30;80.70;;;;;;4971516;28;20034;-75
2022/02/24 07:17:42;;;;;;;10.90;2.88;;;10.40;80.90;;;;;;4969972;28;20058;-75
2022/02/24 07:20:10;;;;;;;7.47;2.53;;;10.30;80.80;;;;;;4969745;28;20023;-75
2022/02/24 07:22:35;;;;;;;7.65;2.92;;;10.30;80.70;;;;;;4970232;28;20492;-76
2022/02/24 07:25:01;;;;;;;8.93;2.67;;;10.30;80.80;;;;;;4971378;28;20035;-76
2022/02/24 07:27:26;;;;;;;9.80;2.58;;;10.30;80.80;;;;;;4969721;28;20445;-76
2022/02/24 07:29:52;;;;;;;8.85;2.95;;;10.40;80.90;;;;;;4970444;28;20031;-76
2022/02/24 07:32:17;;;;;;;8.38;2.90;;;10.40;81.00;;;;;;4965912;28;20521;-77
2022/02/24 07:34:43;;;;;;;7.60;2.65;;;10.30;80.90;;;;;;4985896;28;20035;-76
2022/02/24 07:37:09;;;;;;;7.82;2.55;;;10.30;80.90;;;;;;4970355;28;20085;-76
2022/02/24 07:39:34;;;;;;;8.10;2.40;;;10.40;81.00;;;;;;4970800;28;20027;-75
2022/02/24 07:42:00;;;;;;;7.90;2.47;;;10.40;81.00;;;;;;4969653;28;20043;-76
2022/02/24 07:44:25;;;;;;;7.35;2.70;;;10.40;81.00;;;;;;4969851;28;20203;-76
2022/02/24 07:46:51;;;;;;;9.45;3.10;;;10.40;80.90;;;;;;4969933;28;20073;-77
2022/02/24 07:49:16;;;;;;;7.10;2.33;;;10.40;81.00;;;;;;4969480;28;20472;-77
2022/02/24 07:51:47;;;;;;;6.55;2.50;;;10.40;81.00;;;;;;4969452;28;20027;-76
2022/02/24 07:54:12;;;;;;;7.18;2.78;;;10.40;81.10;;;;;;4986110;28;20038;-77
2022/02/24 07:56:38;;;;;;;5.97;2.45;;;10.40;81.00;;;;;;4969292;28;20529;-75
2022/02/24 07:59:03;;;;;;;7.78;2.60;;;10.40;81.10;;;;;;4984485;28;20027;-75
2022/02/24 08:01:29;;;;;;;6.63;2.45;;;10.40;81.20;;;;;;4969969;28;20103;-76
2022/02/24 08:03:55;;;;;;;7.90;2.30;;;10.40;81.10;;;;;;4970563;28;20460;-76
2022/02/24 08:06:21;;;;;;;8.85;2.75;;;10.40;81.10;;;;;;4985727;28;20027;-75
2022/02/24 08:08:47;;;;;;;6.47;2.30;;;10.40;81.10;;;;;;4968778;28;20041;-75
2022/02/24 08:11:13;;;;;;;9.10;2.95;;;10.40;81.20;;;;;;4971618;28;20034;-76
2022/02/24 08:13:38;;;;;;;7.43;2.20;;;10.40;81.10;;;;;;4971788;28;20042;-74
2022/02/24 08:16:04;;;;;;;6.47;2.60;;;10.40;81.20;;;;;;4971135;28;20093;-76
2022/02/24 08:18:30;;;;;;;9.18;2.58;;;10.40;81.20;;;;;;4968341;28;20030;-76
2022/02/24 08:20:55;;;;;;;6.07;2.47;;;10.40;81.20;;;;;;4969956;28;20058;-75
2022/02/24 08:23:21;;;;;;;7.30;2.70;;;10.40;81.30;;;;;;4968809;28;20110;-76
2022/02/24 08:25:46;;;;;;;7.63;2.33;;;10.40;81.20;;;;;;4969910;28;20082;-76
2022/02/24 08:28:12;;;;;;;7.53;2.50;;;10.40;81.20;;;;;;4967626;28;20034;-77
2022/02/24 08:30:37;;;;;;;6.65;2.20;;;10.40;81.20;;;;;;4966729;28;20121;-75
2022/02/24 08:33:04;;;;;;;7.15;3.03;;;10.40;81.20;;;;;;4966683;28;20117;-76
2022/02/24 08:35:29;;;;;;;7.70;2.50;;;10.40;81.20;;;;;;4968538;28;20039;-75
2022/02/24 08:37:55;;;;;;;6.28;2.22;;;10.40;80.40;;;;;;4966422;28;20054;-76
2022/02/24 08:40:22;;;;;;;5.43;2.28;;;10.40;80.60;;;;;;4968209;28;20109;-76
2022/02/24 08:42:50;;;;;;;5.65;2.33;;;10.40;81.30;;;;;;4966798;28;20038;-76
2022/02/24 08:45:16;;;;;;;6.88;2.45;;;10.40;81.40;;;;;;4968143;28;20678;-75
2022/02/24 08:47:42;;;;;;;7.40;2.33;;;10.40;81.40;;;;;;4966398;28;20047;-76
2022/02/24 08:50:10;;;;;;;7.30;2.35;;;10.40;81.50;;;;;;4967947;28;20022;-76
2022/02/24 08:52:35;;;;;;;6.78;2.40;;;10.40;81.40;;;;;;4967774;28;20135;-75
2022/02/24 08:55:01;;;;;;;7.95;2.42;;;10.40;81.30;;;;;;4968229;28;20518;-76
2022/02/24 08:57:26;;;;;;;6.75;2.30;;;10.50;81.20;;;;;;4967670;28;20262;-76
2022/02/24 08:59:52;;;;;;;8.15;2.25;;;10.50;81.20;;;;;;4968323;28;20494;-75
2022/02/24 09:02:18;;;;;;;7.78;2.50;;;10.50;81.20;;;;;;4965785;28;20035;-76
2022/02/24 09:04:43;;;;;;;5.35;2.22;;;10.50;81.10;;;;;;4966399;28;20409;-75
2022/02/24 09:07:09;;;;;;;5.93;2.15;;;10.50;80.60;;;;;;4966536;28;20041;-75
2022/02/24 09:09:35;;;;;;;5.75;2.38;;;10.60;80.50;;;;;;4967549;28;20429;-75
2022/02/24 09:12:01;;;;;;;8.65;2.20;;;10.60;80.10;;;;;;4967774;28;20089;-76
2022/02/24 09:14:28;;;;;;;6.30;2.15;;;10.70;79.90;;;;;;4966358;28;20405;-75
2022/02/24 09:16:53;;;;;;;6.68;2.38;;;10.80;79.80;;;;;;4982359;28;20034;-75
2022/02/24 09:19:19;;;;;;;7.20;2.10;;;10.80;79.70;;;;;;4966932;28;20290;-75
2022/02/24 09:21:45;;;;;;;6.20;2.20;;;10.90;79.60;;;;;;4966404;28;20493;-76
2022/02/24 09:24:11;;;;;;;5.05;2.20;;;10.90;79.30;;;;;;4966155;28;20387;-75
2022/02/24 09:26:36;;;;;;;6.53;2.33;;;10.90;79.20;;;;;;4966380;28;20029;-75
2022/02/24 09:29:03;;;;;;;6.97;2.17;;;11.00;79.00;;;;;;4967209;28;20031;-75
2022/02/24 09:31:29;;;;;;;7.45;2.33;;;11.10;78.80;;;;;;4982246;28;20031;-75
2022/02/24 09:33:54;;;;;;;5.57;2.33;;;11.10;78.60;;;;;;4965768;28;20398;-75
2022/02/24 09:36:20;;;;;;;5.47;2.28;;;11.20;78.60;;;;;;4981999;28;20046;-75
2022/02/24 09:38:45;;;;;;;6.10;2.47;;;11.20;78.60;;;;;;4965881;28;20041;-74
2022/02/24 09:41:11;;;;;;;6.55;2.30;;;11.20;78.30;;;;;;4966460;28;20105;-75
2022/02/24 09:43:38;;;;;;;6.65;2.10;;;11.30;78.20;;;;;;4965773;28;20489;-75
2022/02/24 09:46:09;;;;;;;6.80;2.45;;;11.30;78.00;;;;;;4967774;28;20568;-75
2022/02/24 09:48:41;;;;;;;5.38;2.10;;;11.40;78.10;;;;;;4967528;28;20363;-75
2022/02/24 09:51:07;;;;;;;7.38;2.22;;;11.40;78.00;;;;;;4967219;28;20054;-75
2022/02/24 09:53:34;;;;;;;5.65;2.20;;;11.40;77.90;;;;;;4966919;28;20117;-75
2022/02/24 09:56:01;;;;;;;5.25;2.20;;;11.40;77.80;;;;;;4965793;28;20038;-74
2022/02/24 09:58:26;;;;;;;6.40;2.20;;;11.40;77.80;;;;;;4966580;28;20500;-76
2022/02/24 10:00:53;;;;;;;7.20;2.22;;;11.40;77.90;;;;;;4966507;28;20039;-75
2022/02/24 10:03:32;;;;;;;4.40;1.90;;;11.50;77.70;;;;;;4967168;28;20023;-75
2022/02/24 10:05:59;;;;;;;6.70;2.20;;;11.50;77.80;;;;;;4965507;28;20027;-75
2022/02/24 10:08:33;;;;;;;7.05;2.17;;;11.50;77.70;;;;;;4981636;28;20507;-74
2022/02/24 10:11:01;;;;;;;5.63;2.15;;;11.50;77.60;;;;;;4966532;28;20037;-75
2022/02/24 10:13:27;;;;;;;6.50;2.28;;;11.50;77.60;;;;;;4966213;28;20035;-75
2022/02/24 10:15:54;;;;;;;5.07;1.92;;;11.50;77.40;;;;;;4965599;28;20125;-75
2022/02/24 10:18:24;;;;;;;5.57;1.90;;;11.60;77.40;;;;;;4964994;28;20027;-75
2022/02/24 10:20:56;;;;;;;7.38;2.50;;;11.60;77.50;;;;;;4966607;28;20026;-75
2022/02/24 10:23:30;;;;;;;7.72;2.38;;;11.50;77.60;;;;;;4966875;28;20154;-76
2022/02/24 10:26:06;;;;;;;6.45;2.10;;;11.50;77.60;;;;;;4967119;28;20019;-76
2022/02/24 10:28:51;;;;;;;6.15;2.25;;;11.50;77.60;;;;;;4966319;28;20034;-75
2022/02/24 10:31:25;;;;;;;6.93;2.38;;;11.50;77.60;;;;;;4966466;28;20591;-76
2022/02/24 10:34:10;;;;;;;5.13;1.98;;;11.60;77.60;;;;;;4964989;28;20565;-76
2022/02/24 10:36:38;;;;;;;5.75;2.10;;;11.60;77.50;;;;;;4965346;28;20026;-76
2022/02/24 10:39:06;;;;;;;7.45;2.17;;;11.70;77.40;;;;;;4966060;28;20086;-75
2022/02/24 10:41:33;;;;;;;4.38;1.90;;;11.70;77.30;;;;;;4965240;28;20035;-76
2022/02/24 10:44:13;;;;;;;4.43;2.03;;;11.70;77.10;;;;;;4965080;28;20035;-76
2022/02/24 10:46:39;;;;;;;4.40;1.63;;;11.70;77.00;;;;;;4965045;28;20508;-76
2022/02/24 10:49:05;;;;;;;5.85;1.80;;;11.70;77.00;;;;;;4965966;28;20482;-76
2022/02/24 10:51:33;;;;;;;5.65;1.90;;;11.80;77.00;;;;;;4966467;28;20038;-76
2022/02/24 10:54:03;;;;;;;5.28;1.90;;;11.80;77.00;;;;;;4966517;28;20022;-75
2022/02/24 10:56:30;;;;;;;5.53;1.70;;;11.80;77.00;;;;;;4966185;28;20043;-75
2022/02/24 10:58:55;;;;;;;5.47;1.75;;;11.80;76.90;;;;;;4965929;28;20058;-76
2022/02/24 11:01:23;;;;;;;5.53;1.80;;;11.80;77.00;;;;;;4965859;28;20030;-75
2022/02/24 11:03:57;;;;;;;6.72;2.63;;;11.80;76.90;;;;;;4964988;28;20038;-75
2022/02/24 11:06:25;;;;;;;4.47;1.70;;;11.80;76.90;;;;;;4981198;28;20058;-76
2022/02/24 11:08:53;;;;;;;5.35;1.60;;;11.80;77.00;;;;;;4964791;28;20045;-76
2022/02/24 11:11:25;;;;;;;5.68;1.70;;;11.70;77.10;;;;;;4966256;28;20062;-76
2022/02/24 11:13:52;;;;;;;4.43;1.75;;;11.70;77.20;;;;;;4964895;28;20030;-76
2022/02/24 11:16:18;;;;;;;5.60;1.67;;;11.70;77.30;;;;;;4966161;28;20058;-75
2022/02/24 11:18:45;;;;;;;5.20;1.60;;;11.70;77.30;;;;;;4964583;28;20521;-76
2022/02/24 11:21:12;;;;;;;4.10;1.60;;;11.70;77.50;;;;;;4964957;28;20162;-75
2022/02/24 11:23:43;;;;;;;4.97;1.70;;;11.60;77.50;;;;;;4966029;28;20046;-75
2022/02/24 11:26:20;;;;;;;5.03;1.88;;;11.60;77.60;;;;;;4967642;28;20037;-75
2022/02/24 11:29:09;;;;;;;4.38;1.60;;;11.60;77.70;;;;;;4968017;28;20110;-76
2022/02/24 11:31:35;;;;;;;6.85;2.00;;;11.60;77.80;;;;;;4969565;28;20494;-75
2022/02/24 11:34:00;;;;;;;5.50;2.10;;;11.50;77.80;;;;;;4969264;28;20050;-75
2022/02/24 11:36:41;;;;;;;5.63;1.77;;;11.50;78.00;;;;;;4968388;28;20093;-76
2022/02/24 11:39:16;;;;;;;5.55;1.70;;;11.50;78.00;;;;;;4969285;28;20092;-76
2022/02/24 11:41:45;;;;;;;5.85;1.70;;;11.50;78.10;;;;;;4969342;28;20230;-76
2022/02/24 11:44:33;;;;;;;3.80;1.50;;;11.50;78.30;;;;;;4969063;28;20026;-75
2022/02/24 11:47:00;;;;;;;4.65;1.60;;;11.40;78.40;;;;;;4969136;28;20508;-76
2022/02/24 11:49:54;;;;;;;4.70;1.60;;;11.40;78.40;;;;;;4967641;28;20397;-75
2022/02/24 11:52:24;;;;;;;5.38;1.85;;;11.40;78.60;;;;;;4969282;28;20030;-76
2022/02/24 11:54:50;;;;;;;5.07;1.50;;;11.40;78.70;;;;;;4967871;28;20023;-76
2022/02/24 11:57:26;;;;;;;5.72;1.90;;;11.40;78.80;;;;;;4967226;28;20027;-75
2022/02/24 11:59:53;;;;;;;5.15;1.80;;;11.30;79.00;;;;;;4983974;28;20035;-75
2022/02/24 12:02:18;;;;;;;7.68;1.92;;;11.30;79.10;;;;;;4967397;28;20027;-76
2022/02/24 12:04:48;;;;;;;5.38;1.70;;;11.30;79.20;;;;;;4969018;28;20031;-76
2022/02/24 12:07:15;;;;;;;3.88;1.60;;;11.20;79.30;;;;;;4968877;28;20026;-75
2022/02/24 12:09:42;;;;;;;4.63;1.77;;;11.30;79.50;;;;;;4967576;28;20034;-75
2022/02/24 12:12:23;;;;;;;5.88;1.90;;;11.20;79.50;;;;;;4968634;28;20027;-76
2022/02/24 12:14:57;;;;;;;4.97;1.75;;;11.30;79.20;;;;;;4983454;28;20777;-75
2022/02/24 12:17:24;;;;;;;7.25;2.08;;;11.40;78.80;;;;;;4968785;28;20105;-75
2022/02/24 12:19:54;;;;;;;5.60;2.03;;;11.50;79.10;;;;;;4967071;28;20398;-76
2022/02/24 12:22:41;;;;;;;5.38;1.83;;;11.50;78.40;;;;;;4967452;28;20177;-75
2022/02/24 12:25:25;;;;;;;5.22;1.98;;;11.50;78.30;;;;;;4968754;28;20490;-76
2022/02/24 12:28:04;;;;;;;5.43;1.88;;;11.60;78.20;;;;;;4966731;28;20053;-75
2022/02/24 12:30:41;;;;;;;6.53;2.20;;;11.60;78.00;;;;;;4968619;28;20102;-74
2022/02/24 12:33:12;;;;;;;5.90;2.05;;;11.60;77.80;;;;;;4968167;28;20142;-75
2022/02/24 12:35:43;;;;;;;5.78;1.75;;;11.70;77.60;;;;;;4968511;28;20042;-76
2022/02/24 12:38:12;;;;;;;5.63;2.15;;;11.70;77.40;;;;;;4966545;28;20042;-76
2022/02/24 12:40:41;;;;;;;5.03;1.90;;;11.80;77.30;;;;;;4968390;28;20027;-76
2022/02/24 12:43:09;;;;;;;5.35;1.80;;;11.80;77.20;;;;;;4968162;28;20046;-75
2022/02/24 12:45:36;;;;;;;5.65;2.15;;;11.80;77.10;;;;;;4968088;28;20023;-75
2022/02/24 12:48:05;;;;;;;7.35;2.00;;;11.80;77.10;;;;;;4966702;28;20046;-76